sensor_id;sensor_type;location;lat;lon;timestamp;temperature;humidity
13808;DHT22;40769;51.512;5.494;2023-01-29T00:02:02;2.00;99.90
13808;DHT22;40769;51.512;5.494;2023-01-29T00:04:29;1.80;99.90
13808;DHT22;40769;51.512;5.494;2023-01-29T00:06:54;1.70;99.90
13808;DHT22;40769;51.512;5.494;2023-01-29T00:09:20;1.50;99.90
13808;DHT22;40769;51.512;5.494;2023-01-29T00:11:45;1.60;99.90
13808;DHT22;40769;51.512;5.494;2023-01-29T00:14:12;1.30;99.90
13808;DHT22;40769;51.512;5.494;2023-01-29T00:16:38;1.20;99.90
13808;DHT22;40769;51.512;5.494;2023-01-29T00:19:04;1.20;99.90
13808;DHT22;40769;51.512;5.494;2023-01-29T00:21:29;1.20;99.90
13808;DHT22;40769;51.512;5.494;2023-01-29T00:23:57;1.20;99.90
13808;DHT22;40769;51.512;5.494;2023-01-29T00:26:22;1.30;99.90
13808;DHT22;40769;51.512;5.494;2023-01-29T00:28:48;1.40;99.90
13808;DHT22;40769;51.512;5.494;2023-01-29T00:31:20;1.60;99.90
13808;DHT22;40769;51.512;5.494;2023-01-29T00:33:47;1.90;99.90
13808;DHT22;40769;51.512;5.494;2023-01-29T00:36:14;2.10;99.90
13808;DHT22;40769;51.512;5.494;2023-01-29T00:38:42;2.30;99.90
13808;DHT22;40769;51.512;5.494;2023-01-29T00:41:10;2.30;99.90
13808;DHT22;40769;51.512;5.494;2023-01-29T00:43:55;2.30;99.90
13808;DHT22;40769;51.512;5.494;2023-01-29T00:46:39;2.20;99.90
13808;DHT22;40769;51.512;5.494;2023-01-29T00:49:05;2.10;99.90
13808;DHT22;40769;51.512;5.494;2023-01-29T00:51:31;2.00;99.90
13808;DHT22;40769;51.512;5.494;2023-01-29T00:53:57;1.80;99.90
13808;DHT22;40769;51.512;5.494;2023-01-29T00:56:29;1.70;99.90
13808;DHT22;40769;51.512;5.494;2023-01-29T00:58:55;1.60;99.90
13808;DHT22;40769;51.512;5.494;2023-01-29T01:01:21;1.60;99.90
13808;DHT22;40769;51.512;5.494;2023-01-29T01:04:07;1.60;99.90
13808;DHT22;40769;51.512;5.494;2023-01-29T01:06:35;1.50;99.90
13808;DHT22;40769;51.512;5.494;2023-01-29T01:09:01;1.60;99.90
13808;DHT22;40769;51.512;5.494;2023-01-29T01:11:45;1.70;99.90
13808;DHT22;40769;51.512;5.494;2023-01-29T01:14:11;1.90;99.90
13808;DHT22;40769;51.512;5.494;2023-01-29T01:16:37;2.10;99.90
13808;DHT22;40769;51.512;5.494;2023-01-29T01:19:03;2.30;99.90
13808;DHT22;40769;51.512;5.494;2023-01-29T01:21:29;2.40;99.90
13808;DHT22;40769;51.512;5.494;2023-01-29T01:23:54;2.40;99.90
13808;DHT22;40769;51.512;5.494;2023-01-29T01:26:20;2.30;99.90
13808;DHT22;40769;51.512;5.494;2023-01-29T01:28:45;2.20;99.90
13808;DHT22;40769;51.512;5.494;2023-01-29T01:31:12;2.10;99.90
13808;DHT22;40769;51.512;5.494;2023-01-29T01:33:39;2.00;99.90
13808;DHT22;40769;51.512;5.494;2023-01-29T01:36:06;1.90;99.90
13808;DHT22;40769;51.512;5.494;2023-01-29T01:38:38;1.90;99.90
13808;DHT22;40769;51.512;5.494;2023-01-29T01:41:14;2.40;99.90
13808;DHT22;40769;51.512;5.494;2023-01-29T01:43:53;1.90;99.90
13808;DHT22;40769;51.512;5.494;2023-01-29T01:46:19;2.50;99.90
13808;DHT22;40769;51.512;5.494;2023-01-29T01:48:46;1.90;99.90
13808;DHT22;40769;51.512;5.494;2023-01-29T01:51:13;1.80;99.90
13808;DHT22;40769;51.512;5.494;2023-01-29T01:53:49;2.60;99.90
13808;DHT22;40769;51.512;5.494;2023-01-29T01:56:24;2.00;99.90
13808;DHT22;40769;51.512;5.494;2023-01-29T01:58:54;2.10;99.90
13808;DHT22;40769;51.512;5.494;2023-01-29T02:01:22;2.10;99.90
13808;DHT22;40769;51.512;5.494;2023-01-29T02:04:00;2.10;99.90
13808;DHT22;40769;51.512;5.494;2023-01-29T02:06:45;2.10;99.90
13808;DHT22;40769;51.512;5.494;2023-01-29T02:09:43;2.00;99.90
13808;DHT22;40769;51.512;5.494;2023-01-29T02:12:12;1.90;99.90
13808;DHT22;40769;51.512;5.494;2023-01-29T02:14:41;1.80;99.90
13808;DHT22;40769;51.512;5.494;2023-01-29T02:17:10;1.70;99.90
13808;DHT22;40769;51.512;5.494;2023-01-29T02:28:11;1.50;99.90
13808;DHT22;40769;51.512;5.494;2023-01-29T02:38:59;1.60;99.90
13808;DHT22;40769;51.512;5.494;2023-01-29T02:46:40;1.90;99.90
13808;DHT22;40769;51.512;5.494;2023-01-29T02:52:08;1.80;99.90
13808;DHT22;40769;51.512;5.494;2023-01-29T02:54:45;1.80;99.90
13808;DHT22;40769;51.512;5.494;2023-01-29T02:57:23;1.70;99.90
13808;DHT22;40769;51.512;5.494;2023-01-29T03:00:09;1.60;99.90
13808;DHT22;40769;51.512;5.494;2023-01-29T03:02:48;1.60;99.90
13808;DHT22;40769;51.512;5.494;2023-01-29T03:05:20;1.60;99.90
13808;DHT22;40769;51.512;5.494;2023-01-29T03:07:53;1.50;99.90
13808;DHT22;40769;51.512;5.494;2023-01-29T03:10:22;1.60;99.90
13808;DHT22;40769;51.512;5.494;2023-01-29T03:13:31;1.60;99.90
13808;DHT22;40769;51.512;5.494;2023-01-29T03:15:55;1.70;99.90
13808;DHT22;40769;51.512;5.494;2023-01-29T03:18:29;1.90;99.90
13808;DHT22;40769;51.512;5.494;2023-01-29T03:21:00;1.90;99.90
13808;DHT22;40769;51.512;5.494;2023-01-29T03:23:28;1.90;99.90
13808;DHT22;40769;51.512;5.494;2023-01-29T03:26:16;2.10;99.90
13808;DHT22;40769;51.512;5.494;2023-01-29T03:29:02;2.30;99.90
13808;DHT22;40769;51.512;5.494;2023-01-29T03:31:47;2.40;99.90
13808;DHT22;40769;51.512;5.494;2023-01-29T03:34:37;2.50;99.90
13808;DHT22;40769;51.512;5.494;2023-01-29T03:37:30;2.50;99.90
13808;DHT22;40769;51.512;5.494;2023-01-29T03:40:03;2.40;99.90
13808;DHT22;40769;51.512;5.494;2023-01-29T03:45:33;2.30;99.90
13808;DHT22;40769;51.512;5.494;2023-01-29T03:50:51;2.20;99.90
13808;DHT22;40769;51.512;5.494;2023-01-29T03:53:23;2.20;99.90
13808;DHT22;40769;51.512;5.494;2023-01-29T03:58:36;2.30;99.90
13808;DHT22;40769;51.512;5.494;2023-01-29T04:01:10;2.40;99.90
13808;DHT22;40769;51.512;5.494;2023-01-29T04:03:40;2.50;99.90
13808;DHT22;40769;51.512;5.494;2023-01-29T04:06:17;2.00;99.90
13808;DHT22;40769;51.512;5.494;2023-01-29T04:09:09;2.70;99.90
13808;DHT22;40769;51.512;5.494;2023-01-29T04:11:42;2.90;99.90
13808;DHT22;40769;51.512;5.494;2023-01-29T04:14:09;3.10;99.90
13808;DHT22;40769;51.512;5.494;2023-01-29T04:16:39;3.10;99.90
13808;DHT22;40769;51.512;5.494;2023-01-29T04:19:05;3.10;99.90
13808;DHT22;40769;51.512;5.494;2023-01-29T04:21:33;3.10;99.90
13808;DHT22;40769;51.512;5.494;2023-01-29T04:24:02;3.00;99.90
13808;DHT22;40769;51.512;5.494;2023-01-29T04:26:57;3.00;99.90
13808;DHT22;40769;51.512;5.494;2023-01-29T04:29:34;2.90;99.90
13808;DHT22;40769;51.512;5.494;2023-01-29T04:45:40;2.90;99.90
13808;DHT22;40769;51.512;5.494;2023-01-29T04:48:36;2.90;99.90
13808;DHT22;40769;51.512;5.494;2023-01-29T04:58:59;3.10;99.90
13808;DHT22;40769;51.512;5.494;2023-01-29T05:01:29;3.10;99.90
13808;DHT22;40769;51.512;5.494;2023-01-29T05:03:59;3.10;99.90
13808;DHT22;40769;51.512;5.494;2023-01-29T05:06:28;3.20;99.90
13808;DHT22;40769;51.512;5.494;2023-01-29T05:08:56;3.20;99.90
13808;DHT22;40769;51.512;5.494;2023-01-29T05:11:23;3.30;99.90
13808;DHT22;40769;51.512;5.494;2023-01-29T05:13:49;3.40;99.90
13808;DHT22;40769;51.512;5.494;2023-01-29T05:16:22;3.50;99.90
13808;DHT22;40769;51.512;5.494;2023-01-29T05:18:50;3.60;99.90
13808;DHT22;40769;51.512;5.494;2023-01-29T05:21:16;3.80;99.90
13808;DHT22;40769;51.512;5.494;2023-01-29T05:23:42;3.80;99.90
13808;DHT22;40769;51.512;5.494;2023-01-29T05:26:19;3.80;99.90
13808;DHT22;40769;51.512;5.494;2023-01-29T05:29:04;3.80;99.90
13808;DHT22;40769;51.512;5.494;2023-01-29T05:31:29;3.70;99.90
13808;DHT22;40769;51.512;5.494;2023-01-29T05:33:55;3.60;99.90
13808;DHT22;40769;51.512;5.494;2023-01-29T05:36:21;3.60;99.90
13808;DHT22;40769;51.512;5.494;2023-01-29T05:38:47;3.50;99.90
13808;DHT22;40769;51.512;5.494;2023-01-29T05:41:12;4.00;99.90
13808;DHT22;40769;51.512;5.494;2023-01-29T05:43:38;3.60;99.90
13808;DHT22;40769;51.512;5.494;2023-01-29T05:46:03;3.60;99.90
13808;DHT22;40769;51.512;5.494;2023-01-29T05:48:29;3.60;99.90
13808;DHT22;40769;51.512;5.494;2023-01-29T05:51:00;3.60;99.90
13808;DHT22;40769;51.512;5.494;2023-01-29T05:53:27;3.60;99.90
13808;DHT22;40769;51.512;5.494;2023-01-29T05:55:52;3.60;99.90
13808;DHT22;40769;51.512;5.494;2023-01-29T05:58:18;3.70;99.90
13808;DHT22;40769;51.512;5.494;2023-01-29T06:00:44;3.80;99.90
13808;DHT22;40769;51.512;5.494;2023-01-29T06:03:09;3.90;99.90
13808;DHT22;40769;51.512;5.494;2023-01-29T06:05:38;4.00;99.90
13808;DHT22;40769;51.512;5.494;2023-01-29T06:08:04;4.00;99.90
13808;DHT22;40769;51.512;5.494;2023-01-29T06:10:33;4.00;99.90
13808;DHT22;40769;51.512;5.494;2023-01-29T06:12:58;3.90;99.90
13808;DHT22;40769;51.512;5.494;2023-01-29T06:15:24;3.90;99.90
13808;DHT22;40769;51.512;5.494;2023-01-29T06:17:53;3.80;99.90
13808;DHT22;40769;51.512;5.494;2023-01-29T06:20:19;4.30;99.90
13808;DHT22;40769;51.512;5.494;2023-01-29T06:22:44;3.80;99.90
13808;DHT22;40769;51.512;5.494;2023-01-29T06:25:10;3.80;99.90
13808;DHT22;40769;51.512;5.494;2023-01-29T06:27:36;3.80;99.90
13808;DHT22;40769;51.512;5.494;2023-01-29T06:30:03;3.80;99.90
13808;DHT22;40769;51.512;5.494;2023-01-29T06:32:29;3.80;99.90
13808;DHT22;40769;51.512;5.494;2023-01-29T06:34:55;3.90;99.90
13808;DHT22;40769;51.512;5.494;2023-01-29T06:37:20;3.80;99.90
13808;DHT22;40769;51.512;5.494;2023-01-29T06:39:46;3.90;99.90
13808;DHT22;40769;51.512;5.494;2023-01-29T06:42:12;3.90;99.90
13808;DHT22;40769;51.512;5.494;2023-01-29T06:44:37;4.00;99.90
13808;DHT22;40769;51.512;5.494;2023-01-29T06:47:03;4.00;99.90
13808;DHT22;40769;51.512;5.494;2023-01-29T06:49:28;4.10;99.90
13808;DHT22;40769;51.512;5.494;2023-01-29T06:51:54;4.20;99.90
13808;DHT22;40769;51.512;5.494;2023-01-29T06:54:20;4.90;99.90
13808;DHT22;40769;51.512;5.494;2023-01-29T06:56:45;4.30;99.90
13808;DHT22;40769;51.512;5.494;2023-01-29T06:59:11;4.50;99.90
13808;DHT22;40769;51.512;5.494;2023-01-29T07:01:40;4.60;99.90
13808;DHT22;40769;51.512;5.494;2023-01-29T07:04:09;4.60;99.90
13808;DHT22;40769;51.512;5.494;2023-01-29T07:06:37;4.50;99.90
13808;DHT22;40769;51.512;5.494;2023-01-29T07:09:03;4.50;99.90
13808;DHT22;40769;51.512;5.494;2023-01-29T07:11:29;4.40;99.90
13808;DHT22;40769;51.512;5.494;2023-01-29T07:13:55;4.30;99.90
13808;DHT22;40769;51.512;5.494;2023-01-29T07:16:20;4.20;99.90
13808;DHT22;40769;51.512;5.494;2023-01-29T07:18:46;4.20;99.90
13808;DHT22;40769;51.512;5.494;2023-01-29T07:21:12;4.20;99.90
13808;DHT22;40769;51.512;5.494;2023-01-29T07:23:37;4.20;99.90
13808;DHT22;40769;51.512;5.494;2023-01-29T07:26:04;4.20;99.90
13808;DHT22;40769;51.512;5.494;2023-01-29T07:28:30;4.20;99.90
13808;DHT22;40769;51.512;5.494;2023-01-29T07:30:57;4.20;99.90
13808;DHT22;40769;51.512;5.494;2023-01-29T07:33:23;4.20;99.90
13808;DHT22;40769;51.512;5.494;2023-01-29T07:35:48;4.20;99.90
13808;DHT22;40769;51.512;5.494;2023-01-29T07:38:14;4.30;99.90
13808;DHT22;40769;51.512;5.494;2023-01-29T07:40:40;4.40;99.90
13808;DHT22;40769;51.512;5.494;2023-01-29T07:43:06;4.50;99.90
13808;DHT22;40769;51.512;5.494;2023-01-29T07:45:36;4.60;99.90
13808;DHT22;40769;51.512;5.494;2023-01-29T07:48:03;4.50;99.90
13808;DHT22;40769;51.512;5.494;2023-01-29T07:50:32;4.50;99.90
13808;DHT22;40769;51.512;5.494;2023-01-29T07:52:59;4.40;99.90
13808;DHT22;40769;51.512;5.494;2023-01-29T07:55:25;4.40;99.90
13808;DHT22;40769;51.512;5.494;2023-01-29T07:57:58;4.40;99.90
13808;DHT22;40769;51.512;5.494;2023-01-29T08:00:24;4.30;99.90
13808;DHT22;40769;51.512;5.494;2023-01-29T08:02:50;4.30;99.90
13808;DHT22;40769;51.512;5.494;2023-01-29T08:05:16;4.20;99.90
13808;DHT22;40769;51.512;5.494;2023-01-29T08:07:41;4.20;99.90
13808;DHT22;40769;51.512;5.494;2023-01-29T08:10:07;4.20;99.90
13808;DHT22;40769;51.512;5.494;2023-01-29T08:12:33;4.20;99.90
13808;DHT22;40769;51.512;5.494;2023-01-29T08:14:59;4.30;99.90
13808;DHT22;40769;51.512;5.494;2023-01-29T08:17:24;5.50;99.90
13808;DHT22;40769;51.512;5.494;2023-01-29T08:19:50;4.30;99.90
13808;DHT22;40769;51.512;5.494;2023-01-29T08:22:16;4.30;99.90
13808;DHT22;40769;51.512;5.494;2023-01-29T08:24:42;4.40;99.90
13808;DHT22;40769;51.512;5.494;2023-01-29T08:27:07;4.40;99.90
13808;DHT22;40769;51.512;5.494;2023-01-29T08:29:33;4.40;99.90
13808;DHT22;40769;51.512;5.494;2023-01-29T08:31:59;4.40;99.90
13808;DHT22;40769;51.512;5.494;2023-01-29T08:34:25;4.40;99.90
13808;DHT22;40769;51.512;5.494;2023-01-29T08:36:51;4.50;99.90
13808;DHT22;40769;51.512;5.494;2023-01-29T08:39:17;4.50;99.90
13808;DHT22;40769;51.512;5.494;2023-01-29T08:41:43;4.50;99.90
13808;DHT22;40769;51.512;5.494;2023-01-29T08:44:09;4.60;99.90
13808;DHT22;40769;51.512;5.494;2023-01-29T08:46:35;4.70;99.90
13808;DHT22;40769;51.512;5.494;2023-01-29T08:49:01;4.90;99.90
13808;DHT22;40769;51.512;5.494;2023-01-29T08:51:27;5.10;99.90
13808;DHT22;40769;51.512;5.494;2023-01-29T08:53:52;4.70;99.90
13808;DHT22;40769;51.512;5.494;2023-01-29T08:56:18;5.30;99.90
13808;DHT22;40769;51.512;5.494;2023-01-29T08:58:44;5.30;99.90
13808;DHT22;40769;51.512;5.494;2023-01-29T09:01:11;5.20;99.90
13808;DHT22;40769;51.512;5.494;2023-01-29T09:03:37;5.20;99.90
13808;DHT22;40769;51.512;5.494;2023-01-29T09:06:09;6.10;99.90
13808;DHT22;40769;51.512;5.494;2023-01-29T09:08:35;5.20;99.90
13808;DHT22;40769;51.512;5.494;2023-01-29T09:11:01;5.20;99.90
13808;DHT22;40769;51.512;5.494;2023-01-29T09:13:26;6.30;99.90
13808;DHT22;40769;51.512;5.494;2023-01-29T09:15:52;5.10;99.90
13808;DHT22;40769;51.512;5.494;2023-01-29T09:18:17;5.70;99.90
13808;DHT22;40769;51.512;5.494;2023-01-29T09:20:43;5.20;99.90
13808;DHT22;40769;51.512;5.494;2023-01-29T09:23:09;5.30;99.90
13808;DHT22;40769;51.512;5.494;2023-01-29T09:25:35;5.40;99.90
13808;DHT22;40769;51.512;5.494;2023-01-29T09:28:01;5.40;99.90
13808;DHT22;40769;51.512;5.494;2023-01-29T09:30:27;5.40;99.90
13808;DHT22;40769;51.512;5.494;2023-01-29T09:32:53;5.30;99.90
13808;DHT22;40769;51.512;5.494;2023-01-29T09:35:20;5.80;99.90
13808;DHT22;40769;51.512;5.494;2023-01-29T09:37:49;5.20;99.90
13808;DHT22;40769;51.512;5.494;2023-01-29T09:40:47;5.20;99.90
13808;DHT22;40769;51.512;5.494;2023-01-29T09:43:19;5.20;99.90
13808;DHT22;40769;51.512;5.494;2023-01-29T09:46:29;5.10;99.90
13808;DHT22;40769;51.512;5.494;2023-01-29T09:49:19;5.10;99.90
13808;DHT22;40769;51.512;5.494;2023-01-29T09:51:52;5.20;99.90
13808;DHT22;40769;51.512;5.494;2023-01-29T09:54:25;5.20;99.90
13808;DHT22;40769;51.512;5.494;2023-01-29T09:56:55;5.20;99.90
13808;DHT22;40769;51.512;5.494;2023-01-29T09:59:23;5.30;99.90
13808;DHT22;40769;51.512;5.494;2023-01-29T10:01:52;5.30;99.90
13808;DHT22;40769;51.512;5.494;2023-01-29T10:07:17;5.60;99.90
13808;DHT22;40769;51.512;5.494;2023-01-29T10:10:07;5.60;99.90
13808;DHT22;40769;51.512;5.494;2023-01-29T10:15:27;5.60;99.90
13808;DHT22;40769;51.512;5.494;2023-01-29T10:23:50;5.50;99.90
13808;DHT22;40769;51.512;5.494;2023-01-29T10:26:20;5.60;99.90
13808;DHT22;40769;51.512;5.494;2023-01-29T10:28:49;5.70;99.90
13808;DHT22;40769;51.512;5.494;2023-01-29T10:31:29;5.60;99.90
13808;DHT22;40769;51.512;5.494;2023-01-29T10:34:15;5.60;99.90
13808;DHT22;40769;51.512;5.494;2023-01-29T10:36:48;5.60;99.90
13808;DHT22;40769;51.512;5.494;2023-01-29T10:39:18;5.70;99.90
13808;DHT22;40769;51.512;5.494;2023-01-29T10:50:54;5.90;99.90
13808;DHT22;40769;51.512;5.494;2023-01-29T10:59:02;5.90;99.90
13808;DHT22;40769;51.512;5.494;2023-01-29T11:01:29;5.90;99.90
13808;DHT22;40769;51.512;5.494;2023-01-29T11:04:02;5.90;99.90
13808;DHT22;40769;51.512;5.494;2023-01-29T11:06:31;5.90;99.90
13808;DHT22;40769;51.512;5.494;2023-01-29T11:11:45;5.90;99.90
13808;DHT22;40769;51.512;5.494;2023-01-29T11:14:24;6.00;99.90
13808;DHT22;40769;51.512;5.494;2023-01-29T11:16:51;6.00;99.90
13808;DHT22;40769;51.512;5.494;2023-01-29T11:19:17;6.20;99.90
13808;DHT22;40769;51.512;5.494;2023-01-29T11:21:57;6.00;99.90
13808;DHT22;40769;51.512;5.494;2023-01-29T11:24:24;6.10;99.90
13808;DHT22;40769;51.512;5.494;2023-01-29T11:26:53;6.20;99.90
13808;DHT22;40769;51.512;5.494;2023-01-29T11:29:30;6.30;99.90
13808;DHT22;40769;51.512;5.494;2023-01-29T11:31:58;6.40;99.90
13808;DHT22;40769;51.512;5.494;2023-01-29T11:34:25;6.60;99.90
13808;DHT22;40769;51.512;5.494;2023-01-29T11:37:03;6.60;99.90
13808;DHT22;40769;51.512;5.494;2023-01-29T11:39:30;6.70;99.90
13808;DHT22;40769;51.512;5.494;2023-01-29T11:42:04;6.60;99.90
13808;DHT22;40769;51.512;5.494;2023-01-29T11:44:32;6.60;99.90
13808;DHT22;40769;51.512;5.494;2023-01-29T11:49:35;6.70;99.90
13808;DHT22;40769;51.512;5.494;2023-01-29T11:52:04;6.70;99.90
13808;DHT22;40769;51.512;5.494;2023-01-29T11:54:36;6.80;99.90
13808;DHT22;40769;51.512;5.494;2023-01-29T11:57:03;6.80;99.90
13808;DHT22;40769;51.512;5.494;2023-01-29T11:59:43;6.90;99.90
13808;DHT22;40769;51.512;5.494;2023-01-29T12:02:30;6.80;99.90
13808;DHT22;40769;51.512;5.494;2023-01-29T12:04:59;6.80;99.90
13808;DHT22;40769;51.512;5.494;2023-01-29T12:07:27;6.80;99.90
13808;DHT22;40769;51.512;5.494;2023-01-29T12:09:55;6.90;99.90
13808;DHT22;40769;51.512;5.494;2023-01-29T12:12:33;6.90;99.90
13808;DHT22;40769;51.512;5.494;2023-01-29T12:15:25;6.90;99.90
13808;DHT22;40769;51.512;5.494;2023-01-29T12:21:13;7.00;99.90
13808;DHT22;40769;51.512;5.494;2023-01-29T12:23:50;7.10;99.90
13808;DHT22;40769;51.512;5.494;2023-01-29T12:26:50;7.20;99.90
13808;DHT22;40769;51.512;5.494;2023-01-29T12:35:24;7.20;99.90
13808;DHT22;40769;51.512;5.494;2023-01-29T12:40:27;7.20;99.90
13808;DHT22;40769;51.512;5.494;2023-01-29T12:42:57;7.10;99.90
13808;DHT22;40769;51.512;5.494;2023-01-29T12:45:26;7.00;99.90
13808;DHT22;40769;51.512;5.494;2023-01-29T12:47:59;7.00;99.90
13808;DHT22;40769;51.512;5.494;2023-01-29T12:50:32;7.30;99.90
13808;DHT22;40769;51.512;5.494;2023-01-29T12:54:02;7.00;99.90
13808;DHT22;40769;51.512;5.494;2023-01-29T12:56:11;7.00;99.90
13808;DHT22;40769;51.512;5.494;2023-01-29T12:58:49;6.90;99.90
13808;DHT22;40769;51.512;5.494;2023-01-29T13:01:16;7.00;99.90
13808;DHT22;40769;51.512;5.494;2023-01-29T13:03:54;6.90;99.90
13808;DHT22;40769;51.512;5.494;2023-01-29T13:06:30;6.90;99.90
13808;DHT22;40769;51.512;5.494;2023-01-29T13:09:02;7.00;99.90
13808;DHT22;40769;51.512;5.494;2023-01-29T13:11:39;7.00;99.90
13808;DHT22;40769;51.512;5.494;2023-01-29T13:14:18;7.10;99.90
13808;DHT22;40769;51.512;5.494;2023-01-29T13:16:48;7.10;99.90
13808;DHT22;40769;51.512;5.494;2023-01-29T13:19:28;7.10;99.90
13808;DHT22;40769;51.512;5.494;2023-01-29T13:21:58;7.20;99.90
13808;DHT22;40769;51.512;5.494;2023-01-29T13:24:33;6.20;99.90
13808;DHT22;40769;51.512;5.494;2023-01-29T13:26:59;7.10;99.90
13808;DHT22;40769;51.512;5.494;2023-01-29T13:29:28;7.10;99.90
13808;DHT22;40769;51.512;5.494;2023-01-29T13:32:04;7.10;99.90
13808;DHT22;40769;51.512;5.494;2023-01-29T13:34:43;7.10;99.90
13808;DHT22;40769;51.512;5.494;2023-01-29T13:37:15;7.10;99.90
13808;DHT22;40769;51.512;5.494;2023-01-29T13:39:48;7.20;99.90
13808;DHT22;40769;51.512;5.494;2023-01-29T13:42:23;7.20;99.90
13808;DHT22;40769;51.512;5.494;2023-01-29T13:44:54;7.10;99.90
13808;DHT22;40769;51.512;5.494;2023-01-29T13:47:29;7.10;99.90
13808;DHT22;40769;51.512;5.494;2023-01-29T13:50:02;7.10;99.90
13808;DHT22;40769;51.512;5.494;2023-01-29T14:10:42;6.90;99.90
13808;DHT22;40769;51.512;5.494;2023-01-29T14:18:35;6.80;99.90
13808;DHT22;40769;51.512;5.494;2023-01-29T14:23:57;6.80;99.90
13808;DHT22;40769;51.512;5.494;2023-01-29T14:26:27;6.70;99.90
13808;DHT22;40769;51.512;5.494;2023-01-29T14:29:15;6.80;99.90
13808;DHT22;40769;51.512;5.494;2023-01-29T14:34:22;6.90;99.90
13808;DHT22;40769;51.512;5.494;2023-01-29T14:36:52;6.90;99.90
13808;DHT22;40769;51.512;5.494;2023-01-29T14:39:23;6.90;99.90
13808;DHT22;40769;51.512;5.494;2023-01-29T14:41:50;7.00;99.90
13808;DHT22;40769;51.512;5.494;2023-01-29T14:47:22;7.10;99.90
13808;DHT22;40769;51.512;5.494;2023-01-29T14:53:33;7.10;99.90
13808;DHT22;40769;51.512;5.494;2023-01-29T14:56:17;7.00;99.90
13808;DHT22;40769;51.512;5.494;2023-01-29T14:58:51;7.20;99.90
13808;DHT22;40769;51.512;5.494;2023-01-29T15:01:30;7.00;99.90
13808;DHT22;40769;51.512;5.494;2023-01-29T15:04:06;7.00;99.90
13808;DHT22;40769;51.512;5.494;2023-01-29T15:09:44;7.10;99.90
13808;DHT22;40769;51.512;5.494;2023-01-29T15:12:26;7.10;99.90
13808;DHT22;40769;51.512;5.494;2023-01-29T15:15:02;7.10;99.90
13808;DHT22;40769;51.512;5.494;2023-01-29T15:20:01;7.20;99.90
13808;DHT22;40769;51.512;5.494;2023-01-29T15:22:26;7.20;99.90
13808;DHT22;40769;51.512;5.494;2023-01-29T15:25:12;7.20;99.90
13808;DHT22;40769;51.512;5.494;2023-01-29T15:27:43;7.30;99.90
13808;DHT22;40769;51.512;5.494;2023-01-29T15:30:28;7.30;99.90
13808;DHT22;40769;51.512;5.494;2023-01-29T15:32:56;7.30;99.90
13808;DHT22;40769;51.512;5.494;2023-01-29T15:35:38;7.30;99.90
13808;DHT22;40769;51.512;5.494;2023-01-29T15:38:15;7.30;99.90
13808;DHT22;40769;51.512;5.494;2023-01-29T15:40:56;7.20;99.90
13808;DHT22;40769;51.512;5.494;2023-01-29T15:43:23;7.20;99.90
13808;DHT22;40769;51.512;5.494;2023-01-29T15:45:51;7.40;99.90
13808;DHT22;40769;51.512;5.494;2023-01-29T15:48:19;7.10;99.90
13808;DHT22;40769;51.512;5.494;2023-01-29T15:50:49;7.10;99.90
13808;DHT22;40769;51.512;5.494;2023-01-29T15:53:22;7.10;99.90
13808;DHT22;40769;51.512;5.494;2023-01-29T15:55:49;7.10;99.90
13808;DHT22;40769;51.512;5.494;2023-01-29T15:58:23;7.10;99.90
13808;DHT22;40769;51.512;5.494;2023-01-29T16:00:54;7.10;99.90
13808;DHT22;40769;51.512;5.494;2023-01-29T16:03:22;7.10;99.90
13808;DHT22;40769;51.512;5.494;2023-01-29T16:05:50;7.10;99.90
13808;DHT22;40769;51.512;5.494;2023-01-29T16:08:17;7.10;99.90
13808;DHT22;40769;51.512;5.494;2023-01-29T16:10:54;7.10;99.90
13808;DHT22;40769;51.512;5.494;2023-01-29T16:13:22;7.10;99.90
13808;DHT22;40769;51.512;5.494;2023-01-29T16:16:03;7.30;99.90
13808;DHT22;40769;51.512;5.494;2023-01-29T16:18:37;7.20;99.90
13808;DHT22;40769;51.512;5.494;2023-01-29T16:21:16;7.20;99.90
13808;DHT22;40769;51.512;5.494;2023-01-29T16:23:49;7.20;99.90
13808;DHT22;40769;51.512;5.494;2023-01-29T16:26:26;7.10;99.90
13808;DHT22;40769;51.512;5.494;2023-01-29T16:28:53;7.10;99.90
13808;DHT22;40769;51.512;5.494;2023-01-29T16:31:27;7.10;99.90
13808;DHT22;40769;51.512;5.494;2023-01-29T16:33:55;7.10;99.90
13808;DHT22;40769;51.512;5.494;2023-01-29T16:36:24;7.00;99.90
13808;DHT22;40769;51.512;5.494;2023-01-29T16:38:59;7.00;99.90
13808;DHT22;40769;51.512;5.494;2023-01-29T16:41:31;7.00;99.90
13808;DHT22;40769;51.512;5.494;2023-01-29T16:43:59;7.00;99.90
13808;DHT22;40769;51.512;5.494;2023-01-29T16:46:35;7.20;99.90
13808;DHT22;40769;51.512;5.494;2023-01-29T16:49:40;6.90;99.90
13808;DHT22;40769;51.512;5.494;2023-01-29T16:51:49;6.90;99.90
13808;DHT22;40769;51.512;5.494;2023-01-29T16:54:15;6.90;99.90
13808;DHT22;40769;51.512;5.494;2023-01-29T16:56:47;6.90;99.90
13808;DHT22;40769;51.512;5.494;2023-01-29T16:59:22;6.90;99.90
13808;DHT22;40769;51.512;5.494;2023-01-29T17:01:55;6.90;99.90
13808;DHT22;40769;51.512;5.494;2023-01-29T17:04:21;6.90;99.90
13808;DHT22;40769;51.512;5.494;2023-01-29T17:06:49;6.90;99.90
13808;DHT22;40769;51.512;5.494;2023-01-29T17:09:23;6.80;99.90
13808;DHT22;40769;51.512;5.494;2023-01-29T17:11:56;6.80;99.90
13808;DHT22;40769;51.512;5.494;2023-01-29T17:14:24;6.80;99.90
13808;DHT22;40769;51.512;5.494;2023-01-29T17:17:13;6.90;99.90
13808;DHT22;40769;51.512;5.494;2023-01-29T17:19:39;6.70;99.90
13808;DHT22;40769;51.512;5.494;2023-01-29T17:22:05;6.70;99.90
13808;DHT22;40769;51.512;5.494;2023-01-29T17:24:33;6.70;99.90
13808;DHT22;40769;51.512;5.494;2023-01-29T17:27:00;6.70;99.90
13808;DHT22;40769;51.512;5.494;2023-01-29T17:29:29;6.70;99.90
13808;DHT22;40769;51.512;5.494;2023-01-29T17:31:56;6.70;99.90
13808;DHT22;40769;51.512;5.494;2023-01-29T17:34:24;6.60;99.90
13808;DHT22;40769;51.512;5.494;2023-01-29T17:36:50;6.60;99.90
13808;DHT22;40769;51.512;5.494;2023-01-29T17:39:21;6.60;99.90
13808;DHT22;40769;51.512;5.494;2023-01-29T17:41:50;6.60;99.90
13808;DHT22;40769;51.512;5.494;2023-01-29T17:44:17;6.60;99.90
13808;DHT22;40769;51.512;5.494;2023-01-29T17:46:42;6.90;99.90
13808;DHT22;40769;51.512;5.494;2023-01-29T17:49:23;6.70;99.90
13808;DHT22;40769;51.512;5.494;2023-01-29T17:51:53;6.70;99.90
13808;DHT22;40769;51.512;5.494;2023-01-29T17:54:20;6.70;99.90
13808;DHT22;40769;51.512;5.494;2023-01-29T17:56:46;6.70;99.90
13808;DHT22;40769;51.512;5.494;2023-01-29T17:59:14;6.70;99.90
13808;DHT22;40769;51.512;5.494;2023-01-29T18:01:40;6.90;99.90
13808;DHT22;40769;51.512;5.494;2023-01-29T18:04:06;6.80;99.90
13808;DHT22;40769;51.512;5.494;2023-01-29T18:06:33;6.80;99.90
13808;DHT22;40769;51.512;5.494;2023-01-29T18:08:59;6.80;99.90
13808;DHT22;40769;51.512;5.494;2023-01-29T18:11:24;6.80;99.90
13808;DHT22;40769;51.512;5.494;2023-01-29T18:13:50;6.80;99.90
13808;DHT22;40769;51.512;5.494;2023-01-29T18:16:16;6.80;99.90
13808;DHT22;40769;51.512;5.494;2023-01-29T18:18:42;6.80;99.90
13808;DHT22;40769;51.512;5.494;2023-01-29T18:21:08;6.90;99.90
13808;DHT22;40769;51.512;5.494;2023-01-29T18:23:34;6.80;99.90
13808;DHT22;40769;51.512;5.494;2023-01-29T18:26:00;6.80;99.90
13808;DHT22;40769;51.512;5.494;2023-01-29T18:28:25;6.80;99.90